Time;durP1;ratioP1;P1;durP2;ratioP2;P2;SDS_P1;SDS_P2;PMS_P1;PMS_P2;Temp;Humidity;BMP_temperature;BMP_pressure;BME280_temperature;BME280_humidity;BME280_pressure;Samples;Min_cycle;Max_cycle;Signal;HPM_P1;HPM_P2
2024/04/20 00:01:51;;;;;;;;;;;;;;;6.54;94.85;99847.19;4392728;27;19941;-85
2024/04/20 00:04:14;;;;;;;;;;;;;;;6.54;95.27;99845.31;4392385;27;20453;-86
2024/04/20 00:06:36;;;;;;;;;;;;;;;6.53;95.07;99849.00;4406473;26;19936;-85
2024/04/20 00:08:59;;;;;;;;;;;;;;;6.54;95.17;99850.69;4392515;27;20480;-86
2024/04/20 00:11:25;;;;;;;;;;;;;;;6.55;95.38;99855.06;4416666;26;19937;-86
2024/04/20 00:13:52;;;;;;;;;;;;;;;6.55;95.30;99860.44;4395068;27;19941;-85
2024/04/20 00:16:18;;;;;;;;;;;;;;;6.56;95.38;99855.88;4393420;27;19937;-83
2024/04/20 00:18:41;;;;;;;;;;;;;;;6.57;95.39;99865.63;4387427;27;20389;-85
2024/04/20 00:21:06;;;;;;;;;;;;;;;6.58;95.84;99860.09;4387478;26;19941;-85
2024/04/20 00:23:29;;;;;;;;;;;;;;;6.60;95.63;99874.16;4368195;27;19938;-85
2024/04/20 00:25:51;;;;;;;;;;;;;;;6.61;96.14;99866.94;4392651;27;19941;-85
2024/04/20 00:28:18;;;;;;;;;;;;;;;6.64;96.21;99877.31;4415534;26;20014;-86
2024/04/20 00:30:41;;;;;;;;;;;;;;;6.65;96.28;99874.47;4394370;27;19937;-86
2024/04/20 00:33:07;;;;;;;;;;;;;;;6.67;96.41;99880.47;4394536;27;20000;-87
2024/04/20 00:35:30;;;;;;;;;;;;;;;6.70;96.03;99889.22;4381098;27;19941;-86
2024/04/20 00:37:54;;;;;;;;;;;;;;;6.72;96.10;99898.75;4394338;27;20004;-85
2024/04/20 00:40:17;;;;;;;;;;;;;;;6.73;96.45;99899.59;4381831;27;20001;-85
2024/04/20 00:42:40;;;;;;;;;;;;;;;6.74;96.58;99899.44;4395925;27;19937;-85
2024/04/20 00:45:03;;;;;;;;;;;;;;;6.77;96.81;99900.91;4411317;26;20014;-85
2024/04/20 00:47:28;;;;;;;;;;;;;;;6.79;96.60;99905.13;4397712;26;19943;-86
2024/04/20 00:49:54;;;;;;;;;;;;;;;6.80;96.65;99914.84;4418315;26;19937;-87
2024/04/20 00:52:16;;;;;;;;;;;;;;;6.81;96.47;99913.81;4416310;26;20343;-84
2024/04/20 00:54:39;;;;;;;;;;;;;;;6.82;96.38;99918.19;4397690;26;19937;-86
2024/04/20 00:57:01;;;;;;;;;;;;;;;6.82;96.15;99923.56;4419759;26;20009;-86
2024/04/20 00:59:24;;;;;;;;;;;;;;;6.84;96.19;99923.38;4395423;27;19938;-87
2024/04/20 01:01:47;;;;;;;;;;;;;;;6.84;96.01;99931.44;4396370;27;19941;-85
2024/04/20 01:04:10;;;;;;;;;;;;;;;6.84;95.84;99928.75;4395814;27;19981;-84
2024/04/20 01:06:36;;;;;;;;;;;;;;;6.84;95.84;99934.13;4392359;27;19940;-85
2024/04/20 01:08:58;;;;;;;;;;;;;;;6.83;95.82;99940.50;4418916;26;19937;-87
2024/04/20 01:11:21;;;;;;;;;;;;;;;6.83;95.71;99941.34;4394802;26;20078;-87
2024/04/20 01:13:52;;;;;;;;;;;;;;;6.84;95.80;99940.31;4395827;26;19937;-88
2024/04/20 01:16:15;;;;;;;;;;;;;;;6.85;95.82;99946.53;4395717;27;20026;-87
2024/04/20 01:18:38;;;;;;;;;;;;;;;6.85;95.84;99950.06;4405026;26;19937;-87
2024/04/20 01:21:03;;;;;;;;;;;;;;;6.85;95.90;99951.91;4370387;27;19985;-87
2024/04/20 01:23:29;;;;;;;;;;;;;;;6.87;95.73;99959.78;4395019;27;20343;-88
2024/04/20 01:25:54;;;;;;;;;;;;;;;6.86;95.91;99956.25;4359030;27;19942;-89
2024/04/20 01:28:16;;;;;;;;;;;;;;;6.87;95.78;99957.09;4389157;27;19962;-88
2024/04/20 01:30:40;;;;;;;;;;;;;;;6.87;95.58;99962.47;4394008;27;19957;-89
2024/04/20 01:33:02;;;;;;;;;;;;;;;6.87;95.79;99965.16;4369394;27;19986;-87
2024/04/20 01:35:27;;;;;;;;;;;;;;;6.87;95.81;99971.34;4393040;27;19938;-87
2024/04/20 01:37:50;;;;;;;;;;;;;;;6.87;96.13;99970.53;4394353;26;19999;-87
2024/04/20 01:40:14;;;;;;;;;;;;;;;6.88;95.75;99977.56;4394834;27;19941;-87
2024/04/20 01:42:39;;;;;;;;;;;;;;;6.88;95.83;99982.91;4418343;26;20020;-86
2024/04/20 01:45:03;;;;;;;;;;;;;;;6.87;95.90;99989.31;4394313;26;20408;-87
2024/04/20 01:47:28;;;;;;;;;;;;;;;6.87;95.99;99992.84;4395098;27;19942;-86
2024/04/20 01:49:51;;;;;;;;;;;;;;;6.88;96.17;99985.59;4393546;27;20037;-87
2024/04/20 01:52:14;;;;;;;;;;;;;;;6.88;96.18;99997.19;4392466;27;19942;-86
2024/04/20 01:54:37;;;;;;;;;;;;;;;6.89;96.27;100000.72;4392978;27;20066;-87
2024/04/20 01:57:00;;;;;;;;;;;;;;;6.90;96.13;100002.41;4394503;26;19938;-86
2024/04/20 01:59:28;;;;;;;;;;;;;;;6.89;96.10;100019.50;4395718;27;19941;-87
2024/04/20 02:01:55;;;;;;;;;;;;;;;6.88;96.35;100018.69;4395615;27;19937;-87
2024/04/20 02:04:18;;;;;;;;;;;;;;;6.88;95.97;100017.81;4394938;26;20001;-86
2024/04/20 02:06:40;;;;;;;;;;;;;;;6.88;96.18;100026.72;4416769;26;20002;-87
2024/04/20 02:09:04;;;;;;;;;;;;;;;6.89;96.15;100027.56;4368426;27;20002;-86
2024/04/20 02:11:27;;;;;;;;;;;;;;;6.87;95.76;100030.41;4416997;26;19937;-86
2024/04/20 02:13:50;;;;;;;;;;;;;;;6.89;95.75;100032.94;4395338;26;20320;-86
2024/04/20 02:16:16;;;;;;;;;;;;;;;6.88;95.56;100031.25;4370730;27;19974;-87
2024/04/20 02:18:39;;;;;;;;;;;;;;;6.89;95.73;100035.59;4392850;26;19941;-86
2024/04/20 02:21:01;;;;;;;;;;;;;;;6.88;95.85;100044.66;4393736;27;19938;-86
2024/04/20 02:23:24;;;;;;;;;;;;;;;6.88;95.79;100044.66;4392798;26;20388;-88
2024/04/20 02:25:51;;;;;;;;;;;;;;;6.88;95.60;100050.88;4393115;27;20000;-86
2024/04/20 02:28:14;;;;;;;;;;;;;;;6.88;95.31;100052.72;4395020;26;20000;-86
2024/04/20 02:30:37;;;;;;;;;;;;;;;6.87;95.41;100059.94;4370974;27;20033;-86
2024/04/20 02:33:03;;;;;;;;;;;;;;;6.88;95.25;100061.63;4393716;27;19942;-87
2024/04/20 02:35:25;;;;;;;;;;;;;;;6.88;94.99;100066.13;4394376;27;19987;-87
2024/04/20 02:37:48;;;;;;;;;;;;;;;6.90;95.00;100072.19;4393239;27;20000;-87
2024/04/20 02:40:14;;;;;;;;;;;;;;;6.88;95.07;100079.56;4395650;26;19937;-87
2024/04/20 02:42:37;;;;;;;;;;;;;;;6.88;95.15;100080.41;4394319;27;20340;-87
2024/04/20 02:45:00;;;;;;;;;;;;;;;6.87;94.88;100080.59;4405253;26;19970;-87
2024/04/20 02:47:23;;;;;;;;;;;;;;;6.87;94.76;100092.16;4395191;26;19945;-86
2024/04/20 02:49:49;;;;;;;;;;;;;;;6.88;94.57;100098.34;4393822;27;19946;-88
2024/04/20 02:52:11;;;;;;;;;;;;;;;6.87;94.26;100102.88;4395764;27;20000;-88
2024/04/20 02:54:39;;;;;;;;;;;;;;;6.85;94.39;100108.44;4392431;26;19938;-92
2024/04/20 02:57:02;;;;;;;;;;;;;;;6.86;94.29;100128.03;4418937;26;20012;-87
2024/04/20 02:59:25;;;;;;;;;;;;;;;6.87;94.23;100129.72;4388847;26;20004;-88
2024/04/20 03:01:48;;;;;;;;;;;;;;;6.88;94.10;100133.25;4393519;27;19955;-87
2024/04/20 03:04:13;;;;;;;;;;;;;;;6.85;93.95;100137.94;4391930;27;19938;-87
2024/04/20 03:06:39;;;;;;;;;;;;;;;6.85;94.24;100142.50;4393543;27;19938;-87
2024/04/20 03:09:02;;;;;;;;;;;;;;;6.82;93.85;100157.06;4395153;27;19999;-89
2024/04/20 03:11:25;;;;;;;;;;;;;;;6.81;93.69;100155.38;4394462;27;20000;-87
2024/04/20 03:13:49;;;;;;;;;;;;;;;6.80;93.71;100155.56;4397620;26;19942;-87
2024/04/20 03:16:19;;;;;;;;;;;;;;;6.78;93.31;100171.81;4384640;27;19937;-88
2024/04/20 03:18:42;;;;;;;;;;;;;;;6.76;92.79;100173.84;4392645;27;19937;-88
2024/04/20 03:21:05;;;;;;;;;;;;;;;6.74;92.43;100178.53;4388507;27;19937;-87
2024/04/20 03:23:33;;;;;;;;;;;;;;;6.73;92.06;100194.81;4393510;27;19975;-90
2024/04/20 03:25:56;;;;;;;;;;;;;;;6.71;91.82;100186.94;4393214;27;20022;-88
2024/04/20 03:28:20;;;;;;;;;;;;;;;6.70;91.38;100197.84;4394406;27;20331;-88
2024/04/20 03:30:43;;;;;;;;;;;;;;;6.67;91.01;100190.94;4369839;27;20001;-87
2024/04/20 03:33:06;;;;;;;;;;;;;;;6.65;90.95;100196.47;4390999;27;20000;-89
2024/04/20 03:35:29;;;;;;;;;;;;;;;6.64;90.97;100202.00;4416986;26;19937;-87
2024/04/20 03:37:53;;;;;;;;;;;;;;;6.62;90.63;100214.75;4402763;26;20002;-88
2024/04/20 03:40:23;;;;;;;;;;;;;;;6.60;90.75;100217.59;4394947;27;20022;-88
2024/04/20 03:42:54;;;;;;;;;;;;;;;6.57;90.58;100215.25;4395171;27;19938;-87
2024/04/20 03:45:14;;;;;;;;;;;;;;;6.56;90.52;100223.44;4416908;26;19941;-89
2024/04/20 03:47:37;;;;;;;;;;;;;;;6.54;90.00;100231.66;4392790;26;20001;-89
2024/04/20 03:50:00;;;;;;;;;;;;;;;6.51;89.82;100232.00;4394159;27;19967;-88
2024/04/20 03:52:23;;;;;;;;;;;;;;;6.50;89.71;100238.34;4379879;27;20029;-88
2024/04/20 03:54:47;;;;;;;;;;;;;;;6.48;89.81;100249.25;4393282;27;19937;-88
2024/04/20 03:57:13;;;;;;;;;;;;;;;6.45;89.36;100254.94;4393118;27;19937;-89
2024/04/20 03:59:47;;;;;;;;;;;;;;;6.43;88.96;100261.47;4403835;26;20423;-88
2024/04/20 04:02:14;;;;;;;;;;;;;;;6.40;89.21;100265.31;4380081;27;19938;-88
2024/04/20 04:04:37;;;;;;;;;;;;;;;6.38;89.22;100270.00;4390924;27;20064;-88
2024/04/20 04:07:02;;;;;;;;;;;;;;;6.37;89.26;100281.72;4367751;27;20004;-87
2024/04/20 04:09:25;;;;;;;;;;;;;;;6.33;89.23;100288.41;4393979;27;19942;-87
2024/04/20 04:11:49;;;;;;;;;;;;;;;6.31;88.59;100291.25;4417427;26;20032;-88
2024/04/20 04:14:15;;;;;;;;;;;;;;;6.30;88.33;100304.81;4392301;26;19985;-88
2024/04/20 04:16:42;;;;;;;;;;;;;;;6.29;88.43;100305.84;4394217;27;20373;-89
2024/04/20 04:19:05;;;;;;;;;;;;;;;6.27;87.85;100307.81;4405653;26;20479;-89
2024/04/20 04:21:28;;;;;;;;;;;;;;;6.25;87.85;100312.50;4390566;26;20321;-89
2024/04/20 04:23:52;;;;;;;;;;;;;;;6.23;88.17;100317.19;4392203;27;19986;-86
2024/04/20 04:26:18;;;;;;;;;;;;;;;6.22;87.94;100326.25;4406050;26;20000;-86
2024/04/20 04:28:40;;;;;;;;;;;;;;;6.20;88.44;100334.44;4416802;26;19937;-86
2024/04/20 04:31:07;;;;;;;;;;;;;;;6.19;88.41;100342.66;4381674;26;20309;-89
2024/04/20 04:33:32;;;;;;;;;;;;;;;6.19;87.89;100345.31;4393344;26;20004;-88
2024/04/20 04:35:58;;;;;;;;;;;;;;;6.16;87.84;100362.59;4415889;26;19937;-87
2024/04/20 04:38:23;;;;;;;;;;;;;;;6.17;87.93;100368.78;4393502;26;19938;-88
2024/04/20 04:40:48;;;;;;;;;;;;;;;6.15;87.46;100378.84;4393519;26;20518;-86
2024/04/20 04:43:12;;;;;;;;;;;;;;;6.13;87.91;100379.81;4393588;27;20067;-87
2024/04/20 04:45:38;;;;;;;;;;;;;;;6.13;87.69;100381.69;4405146;26;19996;-87
2024/04/20 04:48:04;;;;;;;;;;;;;;;6.10;87.65;100400.75;4415838;26;19941;-88
2024/04/20 04:50:30;;;;;;;;;;;;;;;6.09;87.63;100407.09;4391004;27;19938;-89
2024/04/20 04:52:53;;;;;;;;;;;;;;;6.09;87.46;100418.66;4392564;27;20034;-90
2024/04/20 04:55:17;;;;;;;;;;;;;;;6.06;86.79;100410.94;4392052;26;20297;-87
2024/04/20 04:57:42;;;;;;;;;;;;;;;6.06;86.87;100426.19;4367206;27;19937;-87
2024/04/20 05:00:09;;;;;;;;;;;;;;;6.03;86.53;100427.31;4393823;27;19937;-88
2024/04/20 05:02:35;;;;;;;;;;;;;;;6.03;86.69;100434.53;4386001;27;20010;-89
2024/04/20 05:05:01;;;;;;;;;;;;;;;6.00;85.76;100441.03;4392547;27;20540;-88
2024/04/20 05:07:24;;;;;;;;;;;;;;;5.98;86.25;100445.72;4392776;26;19967;-87
2024/04/20 05:09:48;;;;;;;;;;;;;;;5.97;85.66;100460.13;4403506;26;20000;-88
2024/04/20 05:12:11;;;;;;;;;;;;;;;5.95;85.33;100460.22;4367881;27;20343;-87
2024/04/20 05:14:34;;;;;;;;;;;;;;;5.94;85.32;100471.97;4392122;27;20309;-89
2024/04/20 05:16:57;;;;;;;;;;;;;;;5.95;85.53;100478.16;4391741;27;19967;-88
2024/04/20 05:19:24;;;;;;;;;;;;;;;5.92;85.34;100483.84;4392526;27;20009;-88
2024/04/20 05:21:49;;;;;;;;;;;;;;;5.90;84.99;100483.97;4418805;26;19937;-90
2024/04/20 05:24:12;;;;;;;;;;;;;;;5.91;85.00;100490.22;4395238;27;19937;-88
2024/04/20 05:26:36;;;;;;;;;;;;;;;5.89;85.03;100501.09;4395157;27;19942;-88
2024/04/20 05:28:58;;;;;;;;;;;;;;;5.88;84.14;100504.75;4393268;26;19937;-88
2024/04/20 05:31:21;;;;;;;;;;;;;;;5.88;83.87;100512.78;4395766;27;19937;-89
2024/04/20 05:33:44;;;;;;;;;;;;;;;5.87;84.31;100515.63;4369592;27;19937;-88
2024/04/20 05:36:07;;;;;;;;;;;;;;;5.86;84.73;100519.28;4391023;27;20000;-88
2024/04/20 05:38:33;;;;;;;;;;;;;;;5.84;84.29;100530.16;4413206;26;20000;-88
2024/04/20 05:40:57;;;;;;;;;;;;;;;5.84;84.43;100534.69;4386763;26;19958;-88
2024/04/20 05:43:20;;;;;;;;;;;;;;;5.82;84.52;100539.38;4361837;26;20002;-88
2024/04/20 05:45:45;;;;;;;;;;;;;;;5.82;84.26;100550.09;4410428;26;19941;-88
2024/04/20 05:48:11;;;;;;;;;;;;;;;5.81;84.18;100559.94;4387449;26;19937;-88
2024/04/20 05:50:41;;;;;;;;;;;;;;;5.80;84.18;100568.13;4361987;26;19943;-87
2024/04/20 05:53:09;;;;;;;;;;;;;;;5.81;84.52;100569.81;4407481;26;19967;-88
2024/04/20 05:55:35;;;;;;;;;;;;;;;5.80;83.94;100578.84;4364806;26;19981;-88
2024/04/20 05:57:59;;;;;;;;;;;;;;;5.80;84.04;100581.53;4382826;26;19938;-87
2024/04/20 06:00:22;;;;;;;;;;;;;;;5.80;83.88;100592.25;4380897;26;20053;-87
2024/04/20 06:02:45;;;;;;;;;;;;;;;5.80;84.01;100601.16;4407393;26;19973;-87
2024/04/20 06:05:10;;;;;;;;;;;;;;;5.79;84.00;100602.13;4410212;26;19937;-88
2024/04/20 06:07:34;;;;;;;;;;;;;;;5.80;83.39;100613.69;4362667;26;20448;-88
2024/04/20 06:10:01;;;;;;;;;;;;;;;5.78;83.13;100617.38;4410362;26;20664;-88
2024/04/20 06:12:27;;;;;;;;;;;;;;;5.80;83.35;100621.72;4409754;26;20005;-87
2024/04/20 06:14:51;;;;;;;;;;;;;;;5.78;83.44;100625.44;4386363;26;19937;-87
2024/04/20 06:17:13;;;;;;;;;;;;;;;5.80;83.47;100632.44;4384902;26;19938;-85
2024/04/20 06:19:36;;;;;;;;;;;;;;;5.73;83.68;100630.38;4406222;26;19937;-86
2024/04/20 06:21:59;;;;;;;;;;;;;;;5.80;82.97;100633.31;4406739;26;20605;-85
2024/04/20 06:24:23;;;;;;;;;;;;;;;5.80;82.77;100643.16;4408070;26;19941;-85
2024/04/20 06:26:43;;;;;;;;;;;;;;;5.80;82.77;100651.22;4410616;26;19941;-88
2024/04/20 06:29:14;;;;;;;;;;;;;;;5.81;82.60;100658.28;4384988;26;20002;-88
2024/04/20 06:31:41;;;;;;;;;;;;;;;5.82;82.64;100666.16;4413316;26;19941;-87
2024/04/20 06:34:03;;;;;;;;;;;;;;;5.83;82.60;100664.31;4409041;26;19937;-85
2024/04/20 06:36:27;;;;;;;;;;;;;;;5.84;82.30;100668.69;4378736;26;19938;-85
2024/04/20 06:38:50;;;;;;;;;;;;;;;5.85;82.13;100681.13;4396503;27;20261;-85
2024/04/20 06:41:18;;;;;;;;;;;;;;;5.86;82.11;100680.09;4396125;27;19942;-87
2024/04/20 06:43:41;;;;;;;;;;;;;;;5.86;81.91;100685.47;4395922;27;20022;-92
2024/04/20 06:46:08;;;;;;;;;;;;;;;5.88;81.94;100694.22;4398360;27;19937;-85
2024/04/20 06:48:32;;;;;;;;;;;;;;;5.89;81.56;100706.63;4416310;26;20410;-86
2024/04/20 06:50:56;;;;;;;;;;;;;;;5.90;81.59;100706.47;4394607;27;20034;-85
2024/04/20 06:53:19;;;;;;;;;;;;;;;5.92;82.01;100712.56;4393576;27;19989;-86
2024/04/20 06:55:55;;;;;;;;;;;;;;;5.96;81.55;100715.78;4392995;27;20388;-87
2024/04/20 06:58:22;;;;;;;;;;;;;;;5.96;81.56;100721.13;4386263;27;19937;-85
2024/04/20 07:00:45;;;;;;;;;;;;;;;5.99;81.26;100726.22;4391776;27;19959;-87
2024/04/20 07:03:10;;;;;;;;;;;;;;;6.02;80.89;100730.44;4398510;27;19937;-84
2024/04/20 07:09:25;;;;;;;;;;;;;;;6.04;79.71;100745.38;4399219;27;20001;-86
2024/04/20 07:11:48;;;;;;;;;;;;;;;6.06;79.31;100743.41;4385462;27;20336;-90
2024/04/20 07:14:38;;;;;;;;;;;;;;;6.06;78.53;100746.09;4397750;27;20380;-88
2024/04/20 07:17:37;;;;;;;;;;;;;;;6.07;78.82;100750.47;4398217;27;20265;-90
2024/04/20 07:20:22;;;;;;;;;;;;;;;6.10;78.45;100760.88;4389095;27;20278;-91
2024/04/20 07:23:04;;;;;;;;;;;;;;;6.11;78.05;100762.59;4397444;27;19959;-90
2024/04/20 07:25:43;;;;;;;;;;;;;;;6.11;77.51;100770.63;4393273;26;19999;-86
2024/04/20 07:28:52;;;;;;;;;;;;;;;6.12;77.08;100774.16;4396078;27;19937;-90
2024/04/20 07:31:31;;;;;;;;;;;;;;;6.13;77.21;100779.38;4396202;27;19937;-87
2024/04/20 07:34:34;;;;;;;;;;;;;;;6.16;76.85;100788.09;4396429;27;20264;-87
2024/04/20 07:37:09;;;;;;;;;;;;;;;6.18;76.60;100794.19;4393471;26;19938;-89
2024/04/20 07:39:31;;;;;;;;;;;;;;;6.19;76.31;100804.75;4425011;26;19976;-83
2024/04/20 07:41:55;;;;;;;;;;;;;;;6.21;76.54;100810.81;4421396;26;20257;-87
2024/04/20 07:44:21;;;;;;;;;;;;;;;6.22;75.96;100819.69;4424952;26;19976;-88
2024/04/20 07:46:47;;;;;;;;;;;;;;;6.23;75.78;100816.03;4399504;26;20431;-88
2024/04/20 07:49:09;;;;;;;;;;;;;;;6.26;75.86;100835.34;4396153;26;19937;-87
2024/04/20 07:51:32;;;;;;;;;;;;;;;6.29;75.79;100828.88;4421446;26;20018;-89
2024/04/20 07:53:57;;;;;;;;;;;;;;;6.30;76.18;100833.22;4407595;26;20451;-85
2024/04/20 07:56:21;;;;;;;;;;;;;;;6.33;76.39;100846.34;4395657;26;19998;-86
2024/04/20 07:58:44;;;;;;;;;;;;;;;6.36;76.00;100842.53;4388384;26;20388;-85
2024/04/20 08:01:07;;;;;;;;;;;;;;;6.39;75.88;100843.06;4422320;26;19937;-85
2024/04/20 08:03:31;;;;;;;;;;;;;;;6.42;75.79;100850.00;4377901;26;19941;-88
2024/04/20 08:05:54;;;;;;;;;;;;;;;6.45;76.07;100861.25;4396895;26;19978;-87
2024/04/20 08:08:17;;;;;;;;;;;;;;;6.47;75.99;100864.66;4423515;26;19959;-87
2024/04/20 08:10:43;;;;;;;;;;;;;;;6.51;75.93;100870.56;4397712;26;20621;-85
2024/04/20 08:13:06;;;;;;;;;;;;;;;6.56;76.29;100872.81;4398868;26;20000;-90
2024/04/20 08:15:29;;;;;;;;;;;;;;;6.58;75.88;100873.50;4408128;26;20004;-87
2024/04/20 08:17:52;;;;;;;;;;;;;;;6.62;75.74;100888.31;4422428;26;20033;-87
2024/04/20 08:20:16;;;;;;;;;;;;;;;6.64;75.95;100886.34;4407724;26;20477;-87
2024/04/20 08:22:41;;;;;;;;;;;;;;;6.67;75.83;100888.72;4424577;26;19941;-89
2024/04/20 08:25:03;;;;;;;;;;;;;;;6.70;75.95;100903.69;4394364;26;19999;-88
2024/04/20 08:27:30;;;;;;;;;;;;;;;6.72;75.70;100917.81;4398382;26;19995;-88
2024/04/20 08:29:57;;;;;;;;;;;;;;;6.74;75.61;100915.81;4399154;26;20683;-86
2024/04/20 08:32:26;;;;;;;;;;;;;;;6.74;75.87;100922.03;4394965;26;20021;-88
2024/04/20 08:34:49;;;;;;;;;;;;;;;6.77;75.90;100920.88;4430473;26;19945;-89
2024/04/20 08:37:13;;;;;;;;;;;;;;;6.77;76.37;100923.56;4394601;26;19938;-89
2024/04/20 08:39:36;;;;;;;;;;;;;;;6.78;76.07;100936.84;4402558;26;20468;-89
2024/04/20 08:42:05;;;;;;;;;;;;;;;6.78;76.58;100949.44;4395666;27;20031;-90
2024/04/20 08:44:55;;;;;;;;;;;;;;;6.78;76.83;100958.31;4386091;27;19938;-92
2024/04/20 08:47:22;;;;;;;;;;;;;;;6.79;77.14;100967.25;4438962;26;19999;-88
2024/04/20 08:49:47;;;;;;;;;;;;;;;6.77;77.22;100964.69;4395832;26;20462;-87
2024/04/20 08:52:12;;;;;;;;;;;;;;;6.76;76.52;100968.38;4394729;27;19937;-89
2024/04/20 08:54:44;;;;;;;;;;;;;;;6.75;76.82;100963.16;4398290;27;20000;-87
2024/04/20 08:57:08;;;;;;;;;;;;;;;6.74;76.92;100973.03;4394217;27;19938;-86
2024/04/20 08:59:35;;;;;;;;;;;;;;;6.76;77.50;100976.41;4396376;27;19938;-86
2024/04/20 09:02:07;;;;;;;;;;;;;;;6.79;77.62;100970.75;4401090;27;19937;-88
2024/04/20 09:04:31;;;;;;;;;;;;;;;6.82;77.76;100980.38;4413027;26;19976;-90
2024/04/20 09:06:59;;;;;;;;;;;;;;;6.84;77.53;100981.91;4395123;27;19938;-90
2024/04/20 09:09:30;;;;;;;;;;;;;;;6.90;77.28;100993.06;4372738;27;19938;-90
2024/04/20 09:12:00;;;;;;;;;;;;;;;6.94;77.24;101002.50;4400078;27;19942;-88
2024/04/20 09:14:26;;;;;;;;;;;;;;;6.96;77.16;101024.66;4376002;27;19941;-83
2024/04/20 09:16:48;;;;;;;;;;;;;;;6.96;77.08;101030.91;4400410;27;20265;-87
2024/04/20 09:19:16;;;;;;;;;;;;;;;6.96;77.44;101025.53;4422758;26;19980;-85
2024/04/20 09:21:49;;;;;;;;;;;;;;;6.93;77.29;101036.56;4397795;26;20346;-86
2024/04/20 09:24:27;;;;;;;;;;;;;;;6.91;77.28;101030.50;4389965;26;19993;-87
2024/04/20 09:26:53;;;;;;;;;;;;;;;6.87;77.47;101031.78;4396263;26;20360;-87
2024/04/20 09:29:18;;;;;;;;;;;;;;;6.85;77.45;101034.63;4394856;26;19942;-86
2024/04/20 09:31:38;;;;;;;;;;;;;;;6.87;77.90;101030.94;4395189;26;19938;-87
2024/04/20 09:34:05;;;;;;;;;;;;;;;6.85;78.18;101037.28;4394750;26;20054;-86
2024/04/20 09:36:41;;;;;;;;;;;;;;;6.87;78.31;101034.47;4392367;26;19938;-90
2024/04/20 09:39:05;;;;;;;;;;;;;;;6.88;78.36;101041.53;4417635;26;20033;-88
2024/04/20 09:41:28;;;;;;;;;;;;;;;6.90;78.39;101047.59;4403367;26;20419;-87
2024/04/20 09:43:59;;;;;;;;;;;;;;;6.92;78.55;101053.66;4400602;26;20364;-89
2024/04/20 09:46:22;;;;;;;;;;;;;;;6.95;78.41;101065.97;4396831;26;19941;-87
2024/04/20 09:48:47;;;;;;;;;;;;;;;6.95;77.59;101061.44;4395379;26;19937;-86
2024/04/20 09:51:13;;;;;;;;;;;;;;;6.93;76.06;101071.47;4398080;26;20273;-87
2024/04/20 09:53:39;;;;;;;;;;;;;;;6.91;74.81;101056.50;4407184;27;19937;-87
2024/04/20 09:56:02;;;;;;;;;;;;;;;6.88;74.84;101059.47;4400943;26;19938;-86
2024/04/20 09:58:26;;;;;;;;;;;;;;;6.87;74.92;101058.63;4367276;27;20028;-85
2024/04/20 10:00:50;;;;;;;;;;;;;;;6.85;75.10;101058.78;4392640;27;19938;-89
2024/04/20 10:03:13;;;;;;;;;;;;;;;6.87;75.52;101057.78;4415548;26;19999;-86
2024/04/20 10:05:36;;;;;;;;;;;;;;;6.88;76.25;101051.41;4368837;27;20008;-82
2024/04/20 10:07:58;;;;;;;;;;;;;;;6.90;76.49;101057.50;4393556;26;20238;-87
2024/04/20 10:10:25;;;;;;;;;;;;;;;6.92;76.44;101061.72;4395478;27;19963;-89
2024/04/20 10:12:48;;;;;;;;;;;;;;;6.96;76.22;101054.22;4397796;26;20000;-85
2024/04/20 10:15:12;;;;;;;;;;;;;;;7.01;76.57;101060.84;4393103;26;20005;-88
2024/04/20 10:17:52;;;;;;;;;;;;;;;7.06;76.27;101055.03;4394303;27;19941;-88
2024/04/20 10:20:27;;;;;;;;;;;;;;;7.10;76.06;101056.47;4370993;27;20067;-92
2024/04/20 10:23:03;;;;;;;;;;;;;;;7.16;75.76;101060.38;4393560;27;19937;-91
2024/04/20 10:25:32;;;;;;;;;;;;;;;7.20;75.54;101064.47;4396742;26;19938;-89
2024/04/20 10:30:43;;;;;;;;;;;;;;;7.31;75.19;101071.50;4389681;27;19964;-90
2024/04/20 10:33:13;;;;;;;;;;;;;;;7.34;74.95;101077.41;4397380;27;20419;-92
2024/04/20 10:35:50;;;;;;;;;;;;;;;7.37;75.35;101087.03;4400115;26;19938;-89
2024/04/20 10:38:35;;;;;;;;;;;;;;;7.38;75.32;101103.00;4356181;27;20449;-89
2024/04/20 10:41:25;;;;;;;;;;;;;;;7.40;75.05;101105.56;4396886;27;20262;-90
2024/04/20 10:43:58;;;;;;;;;;;;;;;7.42;74.67;101122.38;4372256;27;20029;-93
2024/04/20 10:46:25;;;;;;;;;;;;;;;7.39;74.33;101123.50;4395903;27;19938;-89
2024/04/20 10:49:01;;;;;;;;;;;;;;;7.38;73.88;101121.81;4396814;26;19967;-91
2024/04/20 10:51:28;;;;;;;;;;;;;;;7.38;73.37;101121.81;4371738;27;19964;-92
2024/04/20 10:54:16;;;;;;;;;;;;;;;7.37;73.02;101127.34;4358805;27;19938;-87
2024/04/20 10:56:54;;;;;;;;;;;;;;;7.35;73.51;101138.25;4365882;27;19974;-89
2024/04/20 10:59:20;;;;;;;;;;;;;;;7.34;73.67;101141.06;4395240;27;20451;-89
2024/04/20 11:01:44;;;;;;;;;;;;;;;7.33;74.00;101140.19;4366300;27;20330;-90
2024/04/20 11:04:26;;;;;;;;;;;;;;;;;;;;;
2024/04/20 11:06:54;;;;;;;;;;;;;;;7.29;74.34;101149.56;4396215;27;20364;-92
2024/04/20 11:09:26;;;;;;;;;;;;;;;7.29;74.75;101148.69;4369765;27;19938;-92
2024/04/20 11:12:16;;;;;;;;;;;;;;;;;;;;;
2024/04/20 11:15:04;;;;;;;;;;;;;;;7.26;74.68;101155.22;4396535;27;19938;-89
2024/04/20 11:17:33;;;;;;;;;;;;;;;7.22;74.38;101154.69;4394945;27;20001;-88
2024/04/20 11:20:08;;;;;;;;;;;;;;;7.21;74.33;101155.66;4394693;26;19985;-86
2024/04/20 11:22:29;;;;;;;;;;;;;;;7.18;73.61;101150.59;4393886;27;20011;-86
2024/04/20 11:24:55;;;;;;;;;;;;;;;7.19;73.96;101154.09;4335258;26;19978;-88
2024/04/20 11:27:21;;;;;;;;;;;;;;;7.21;74.16;101154.81;4391285;27;19937;-86
2024/04/20 11:29:44;;;;;;;;;;;;;;;7.22;74.47;101162.75;4393702;26;19945;-86
2024/04/20 11:32:07;;;;;;;;;;;;;;;7.27;74.51;101161.44;4373430;27;20006;-86
2024/04/20 11:34:30;;;;;;;;;;;;;;;7.31;74.58;101157.47;4369253;27;19937;-88
2024/04/20 18:05:14;;;;;;;;;;;;;;;8.82;55.30;101345.63;4416029;26;19937;-85
2024/04/20 18:07:37;;;;;;;;;;;;;;;8.80;55.26;101357.53;4356131;27;20642;-84
2024/04/20 18:09:59;;;;;;;;;;;;;;;8.78;55.27;101363.06;4386135;27;20734;-84
2024/04/20 18:12:19;;;;;;;;;;;;;;;8.76;55.14;101365.09;4368824;27;19986;-85
2024/04/20 18:14:43;;;;;;;;;;;;;;;8.75;55.27;101366.06;4388991;26;20001;-85
2024/04/20 18:17:03;;;;;;;;;;;;;;;8.73;55.04;101368.06;4348491;27;19942;-86
2024/04/20 18:19:26;;;;;;;;;;;;;;;8.72;55.03;101366.38;4369356;27;19938;-86
2024/04/20 18:21:46;;;;;;;;;;;;;;;8.70;55.36;101371.06;4382604;26;19941;-85
2024/04/20 18:24:11;;;;;;;;;;;;;;;8.68;55.16;101375.72;4361618;27;20007;-86
2024/04/20 18:26:31;;;;;;;;;;;;;;;8.66;55.16;101375.88;4364310;26;19942;-85
2024/04/20 18:28:54;;;;;;;;;;;;;;;8.62;54.90;101382.59;4357655;27;19938;-86
2024/04/20 18:31:13;;;;;;;;;;;;;;;8.60;54.90;101387.25;4392866;27;19946;-92
2024/04/20 18:33:36;;;;;;;;;;;;;;;8.59;54.99;101390.09;4366251;26;19950;-85
2024/04/20 18:35:57;;;;;;;;;;;;;;;8.56;54.97;101385.88;4369371;27;20310;-87
2024/04/20 18:38:19;;;;;;;;;;;;;;;8.56;55.15;101388.56;4395974;26;19936;-84
2024/04/20 18:40:42;;;;;;;;;;;;;;;8.54;55.00;101398.63;4344041;27;19937;-86
2024/04/20 18:43:05;;;;;;;;;;;;;;;8.52;55.06;101392.53;4391600;26;20025;-86
2024/04/20 18:45:25;;;;;;;;;;;;;;;8.51;54.88;101398.06;4368690;27;20633;-85
2024/04/20 18:47:48;;;;;;;;;;;;;;;8.50;55.00;101399.06;4368533;27;19938;-86
2024/04/20 18:50:14;;;;;;;;;;;;;;;8.47;54.85;101403.75;4393931;26;20333;-86
2024/04/20 18:52:37;;;;;;;;;;;;;;;8.44;55.08;101408.56;4369014;27;20002;-85
2024/04/20 18:54:58;;;;;;;;;;;;;;;8.43;54.80;101406.84;4394830;27;19938;-86
2024/04/20 18:57:25;;;;;;;;;;;;;;;8.42;54.93;101413.22;4345402;27;20277;-85
2024/04/20 18:59:44;;;;;;;;;;;;;;;8.40;54.81;101410.69;4357137;27;20521;-85
2024/04/20 19:02:08;;;;;;;;;;;;;;;8.37;54.72;101413.66;4368904;27;19938;-84
2024/04/20 19:04:28;;;;;;;;;;;;;;;8.36;54.66;101422.72;4366274;27;20457;-83
2024/04/20 19:06:51;;;;;;;;;;;;;;;8.35;55.06;101421.03;4372031;26;19938;-84
2024/04/20 19:09:10;;;;;;;;;;;;;;;8.33;54.85;101423.03;4369333;27;19938;-84
2024/04/20 19:11:33;;;;;;;;;;;;;;;8.31;54.76;101427.72;4392951;27;19963;-82
2024/04/20 19:13:57;;;;;;;;;;;;;;;8.30;55.00;101428.69;4372479;27;19938;-85
2024/04/20 19:16:19;;;;;;;;;;;;;;;8.28;54.98;101439.59;4347021;27;19939;-81
2024/04/20 19:18:41;;;;;;;;;;;;;;;8.27;55.06;101437.91;4392606;27;20377;-82